createdAt,value
2017-12-11T00:00:49.964Z,3.70
2017-12-11T00:03:17.465Z,4.33
2017-12-11T00:05:44.979Z,3.23
2017-12-11T00:08:12.476Z,4.37
2017-12-11T00:10:39.964Z,4.17
2017-12-11T00:13:07.467Z,1.93
2017-12-11T00:15:34.949Z,3.77
2017-12-11T00:18:04.909Z,4.60
2017-12-11T00:20:32.403Z,3.57
2017-12-11T00:22:59.902Z,2.20
2017-12-11T00:25:27.408Z,4.73
2017-12-11T00:27:54.928Z,1.93
2017-12-11T00:30:22.408Z,1.90
2017-12-11T00:32:49.906Z,1.90
2017-12-11T00:35:17.407Z,1.70
2017-12-11T00:37:44.924Z,1.90
2017-12-11T00:40:12.419Z,2.80
2017-12-11T00:42:39.942Z,2.53
2017-12-11T00:45:07.702Z,1.93
2017-12-11T00:47:35.438Z,1.90
2017-12-11T00:50:02.937Z,2.53
2017-12-11T00:52:30.412Z,1.70
2017-12-11T00:54:57.909Z,2.77
2017-12-11T00:57:25.410Z,2.00
2017-12-11T00:59:52.891Z,2.57
2017-12-11T01:02:20.381Z,2.20
2017-12-11T01:04:47.863Z,3.07
2017-12-11T01:07:15.359Z,2.50
2017-12-11T01:09:42.855Z,2.27
2017-12-11T01:12:10.356Z,2.40
2017-12-11T01:14:37.833Z,2.30
2017-12-11T01:17:05.321Z,2.33
2017-12-11T01:19:32.824Z,2.47
2017-12-11T01:22:00.312Z,2.33
2017-12-11T01:24:27.925Z,3.80
2017-12-11T01:26:55.502Z,2.50
2017-12-11T01:29:22.992Z,2.40
2017-12-11T01:31:50.616Z,3.47
2017-12-11T01:34:19.021Z,2.93
2017-12-11T01:36:46.522Z,2.90
2017-12-11T01:39:13.996Z,3.27
2017-12-11T01:41:41.518Z,3.10
2017-12-11T01:44:09.043Z,3.17
2017-12-11T01:46:36.521Z,3.00
2017-12-11T01:49:04.043Z,3.40
2017-12-11T01:51:31.534Z,3.17
2017-12-11T01:53:59.006Z,3.73
2017-12-11T01:56:26.480Z,3.40
2017-12-11T01:58:53.954Z,3.67
2017-12-11T02:01:21.435Z,3.67
2017-12-11T02:03:48.921Z,3.37
2017-12-11T02:06:16.400Z,3.70
2017-12-11T02:08:43.901Z,4.00
2017-12-11T02:11:11.386Z,4.10
2017-12-11T02:13:38.874Z,4.13
2017-12-11T02:16:06.428Z,4.50
2017-12-11T02:18:33.917Z,3.80
2017-12-11T02:21:01.422Z,4.37
2017-12-11T02:23:28.912Z,4.13
2017-12-11T02:25:56.381Z,4.27
2017-12-11T02:28:23.878Z,4.00
2017-12-11T02:30:51.360Z,4.60
2017-12-11T02:33:18.858Z,5.20
2017-12-11T02:35:46.343Z,5.40
2017-12-11T02:38:13.821Z,6.30
2017-12-11T02:40:41.336Z,6.60
2017-12-11T02:43:08.808Z,7.00
2017-12-11T02:45:36.301Z,7.00
2017-12-11T02:48:03.774Z,7.23
2017-12-11T02:50:31.264Z,7.93
2017-12-11T02:52:58.733Z,8.07
2017-12-11T02:55:26.216Z,8.20
2017-12-11T02:57:53.719Z,7.57
2017-12-11T03:00:21.232Z,8.70
2017-12-11T03:02:48.717Z,8.67
2017-12-11T03:05:16.296Z,8.00
2017-12-11T03:07:43.774Z,8.87
2017-12-11T03:10:11.265Z,8.40
2017-12-11T03:12:38.737Z,9.30
2017-12-11T03:15:06.250Z,9.17
2017-12-11T03:17:33.731Z,9.70
2017-12-11T03:20:01.213Z,9.27
2017-12-11T03:22:28.714Z,9.90
2017-12-11T03:24:56.222Z,10.77
2017-12-11T03:27:23.712Z,10.20
2017-12-11T03:29:51.294Z,11.30
2017-12-11T03:32:18.792Z,10.07
2017-12-11T03:34:46.287Z,11.47
2017-12-11T03:37:13.827Z,12.67
2017-12-11T03:39:41.366Z,11.30
2017-12-11T03:42:08.898Z,10.87
2017-12-11T03:44:36.388Z,11.60
2017-12-11T03:47:03.936Z,12.43
2017-12-11T03:49:31.429Z,12.47
2017-12-11T03:51:58.941Z,11.90
2017-12-11T03:54:26.420Z,12.73
2017-12-11T03:56:53.906Z,13.07
2017-12-11T03:59:21.396Z,12.47
2017-12-11T04:01:48.888Z,14.03
2017-12-11T04:04:16.399Z,13.07
2017-12-11T04:06:43.913Z,13.40
2017-12-11T04:09:11.409Z,14.33
2017-12-11T04:11:39.121Z,13.77
2017-12-11T04:14:06.600Z,14.70
2017-12-11T04:16:34.094Z,14.43
2017-12-11T04:19:01.607Z,14.20
2017-12-11T04:21:29.102Z,15.77
2017-12-11T04:23:56.612Z,16.20
2017-12-11T04:26:24.111Z,15.60
2017-12-11T04:28:51.616Z,15.60
2017-12-11T04:31:19.119Z,15.13
2017-12-11T04:33:46.664Z,16.47
2017-12-11T04:36:14.191Z,17.40
2017-12-11T04:38:41.690Z,15.43
2017-12-11T04:41:09.207Z,14.80
2017-12-11T04:43:36.713Z,16.03
2017-12-11T04:46:04.205Z,15.60
2017-12-11T04:48:31.693Z,15.70
2017-12-11T04:50:59.187Z,14.10
2017-12-11T04:53:26.705Z,17.00
2017-12-11T04:55:54.208Z,16.80
2017-12-11T04:58:21.743Z,17.10
2017-12-11T05:00:49.284Z,16.67
2017-12-11T05:03:16.841Z,16.33
2017-12-11T05:05:44.337Z,15.93
2017-12-11T05:08:11.840Z,17.53
2017-12-11T05:10:39.344Z,15.23
2017-12-11T05:13:06.833Z,17.03
2017-12-11T05:15:34.500Z,17.43
2017-12-11T05:18:02.020Z,15.83
2017-12-11T05:20:29.520Z,17.87
2017-12-11T05:22:57.036Z,15.87
2017-12-11T05:25:24.517Z,17.57
2017-12-11T05:27:52.174Z,17.47
2017-12-11T05:30:19.676Z,15.83
2017-12-11T05:32:47.168Z,17.47
2017-12-11T05:35:14.693Z,18.10
2017-12-11T05:37:42.176Z,15.73
2017-12-11T05:40:09.688Z,15.93
2017-12-11T05:42:37.194Z,15.87
2017-12-11T05:45:04.710Z,16.27
2017-12-11T05:47:32.189Z,17.47
2017-12-11T05:49:59.686Z,18.13
2017-12-11T05:52:27.208Z,17.77
2017-12-11T05:54:54.692Z,18.77
2017-12-11T05:57:22.259Z,19.90
2017-12-11T05:59:49.803Z,18.50
2017-12-11T06:02:17.321Z,17.17
2017-12-11T06:04:44.813Z,16.20
2017-12-11T06:07:12.340Z,18.13
2017-12-11T06:09:39.869Z,15.00
2017-12-11T06:12:07.376Z,15.33
2017-12-11T06:14:34.855Z,14.60
2017-12-11T06:17:02.415Z,18.53
2017-12-11T06:19:29.904Z,14.33
2017-12-11T06:21:57.392Z,15.90
2017-12-11T06:24:24.903Z,16.97
2017-12-11T06:26:52.401Z,16.87
2017-12-11T06:29:19.927Z,17.03
2017-12-11T06:31:47.452Z,16.17
2017-12-11T06:34:14.933Z,17.57
2017-12-11T06:36:42.413Z,18.17
2017-12-11T06:39:09.896Z,16.27
2017-12-11T06:41:37.714Z,15.27
2017-12-11T06:44:05.197Z,14.07
2017-12-11T06:46:32.704Z,15.17
2017-12-11T06:49:00.425Z,15.03
2017-12-11T06:51:27.939Z,16.70
2017-12-11T06:53:55.437Z,14.43
2017-12-11T06:56:22.936Z,15.30
2017-12-11T06:58:50.471Z,15.37
2017-12-11T07:01:17.981Z,13.07
2017-12-11T07:03:45.461Z,14.83
2017-12-11T07:06:12.965Z,13.00
2017-12-11T07:08:40.481Z,15.33
2017-12-11T07:11:08.155Z,15.10
2017-12-11T07:13:35.690Z,14.83
2017-12-11T07:16:03.184Z,15.50
2017-12-11T07:18:30.706Z,14.37
2017-12-11T07:20:58.231Z,15.63
2017-12-11T07:23:25.709Z,15.23
2017-12-11T07:28:35.047Z,14.57
2017-12-11T07:31:02.557Z,15.07
2017-12-11T07:33:30.068Z,14.60
2017-12-11T07:35:57.571Z,12.73
2017-12-11T07:38:25.090Z,13.97
2017-12-11T07:40:52.584Z,14.63
2017-12-11T07:43:20.110Z,15.97
2017-12-11T07:45:47.913Z,15.40
2017-12-11T07:48:15.419Z,13.97
2017-12-11T07:50:42.947Z,15.83
2017-12-11T07:53:10.419Z,14.60
2017-12-11T07:55:37.924Z,14.33
2017-12-11T07:58:05.416Z,16.43
2017-12-11T08:00:32.941Z,13.80
2017-12-11T08:03:00.444Z,13.67
2017-12-11T08:05:27.995Z,13.50
2017-12-11T08:07:55.621Z,13.03
2017-12-11T08:10:23.113Z,13.67
2017-12-11T08:12:50.613Z,13.37
2017-12-11T08:15:18.131Z,14.77
2017-12-11T08:17:46.651Z,13.33
2017-12-11T08:20:14.185Z,14.83
2017-12-11T08:22:41.674Z,13.47
2017-12-11T08:25:09.172Z,13.47
2017-12-11T08:27:36.656Z,13.70
2017-12-11T08:30:04.155Z,15.33
2017-12-11T08:32:31.663Z,13.27
2017-12-11T08:34:59.164Z,13.73
2017-12-11T08:37:26.693Z,15.40
2017-12-11T08:39:54.169Z,14.00
2017-12-11T08:42:21.663Z,14.73
2017-12-11T08:44:49.169Z,16.40
2017-12-11T08:47:16.683Z,14.27
2017-12-11T08:49:44.191Z,14.23
2017-12-11T08:52:11.681Z,14.10
2017-12-11T08:54:39.216Z,13.73
2017-12-11T08:57:06.731Z,14.00
2017-12-11T08:59:34.235Z,13.60
2017-12-11T09:02:01.709Z,14.97
2017-12-11T09:04:29.192Z,13.87
2017-12-11T09:06:56.695Z,13.30
2017-12-11T09:09:24.216Z,14.63
2017-12-11T09:11:51.727Z,17.87
2017-12-11T09:14:19.213Z,16.50
2017-12-11T09:16:46.723Z,14.00
2017-12-11T09:19:14.231Z,13.67
2017-12-11T09:21:41.735Z,14.47
2017-12-11T09:24:09.224Z,14.73
2017-12-11T09:26:36.705Z,17.30
2017-12-11T09:29:04.208Z,14.93
2017-12-11T09:31:31.703Z,15.40
2017-12-11T09:33:59.201Z,15.03
2017-12-11T09:36:26.688Z,14.63
2017-12-11T09:38:54.192Z,15.57
2017-12-11T09:41:21.683Z,16.70
2017-12-11T09:43:49.321Z,16.33
2017-12-11T09:46:16.769Z,15.50
2017-12-11T09:48:44.257Z,19.63
2017-12-11T09:51:11.749Z,17.60
2017-12-11T09:53:39.246Z,17.23
2017-12-11T09:56:06.748Z,19.40
2017-12-11T09:58:34.259Z,19.47
2017-12-11T10:01:01.764Z,18.40
2017-12-11T10:03:29.280Z,16.60
2017-12-11T10:05:56.769Z,18.57
2017-12-11T10:08:24.265Z,20.87
2017-12-11T10:10:51.777Z,17.20
2017-12-11T10:13:19.350Z,20.53
2017-12-11T10:15:46.867Z,18.30
2017-12-11T10:18:14.384Z,18.53
2017-12-11T10:20:41.891Z,15.90
2017-12-11T10:23:09.404Z,17.60
2017-12-11T10:25:36.898Z,16.27
2017-12-11T10:28:04.391Z,17.10
2017-12-11T10:30:31.893Z,18.23
2017-12-11T10:32:59.407Z,17.87
2017-12-11T10:35:26.924Z,18.87
2017-12-11T10:37:54.432Z,17.27
2017-12-11T10:40:23.192Z,16.27
2017-12-11T10:42:50.879Z,19.90
2017-12-11T10:45:18.532Z,16.57
2017-12-11T10:47:46.224Z,17.33
2017-12-11T10:50:13.744Z,18.47
2017-12-11T10:52:41.234Z,17.57
2017-12-11T10:55:08.775Z,16.53
2017-12-11T10:57:36.282Z,18.73
2017-12-11T11:00:03.789Z,20.43
2017-12-11T11:02:31.410Z,21.33
2017-12-11T11:04:58.895Z,21.43
2017-12-11T11:07:26.416Z,25.03
2017-12-11T11:09:53.900Z,18.03
2017-12-11T11:12:21.403Z,19.97
2017-12-11T11:14:49.231Z,23.87
2017-12-11T11:17:16.738Z,20.87
2017-12-11T11:19:44.252Z,21.33
2017-12-11T11:22:11.749Z,19.70
2017-12-11T11:24:39.273Z,21.50
2017-12-11T11:27:06.790Z,20.57
2017-12-11T11:29:34.378Z,24.53
2017-12-11T11:32:01.875Z,23.00
2017-12-11T11:34:29.415Z,25.67
2017-12-11T11:36:56.952Z,25.70
2017-12-11T11:39:24.463Z,24.43
2017-12-11T11:41:52.142Z,20.50
2017-12-11T11:44:19.631Z,24.33
2017-12-11T11:46:47.108Z,22.03
2017-12-11T11:49:14.632Z,27.63
2017-12-11T11:51:42.120Z,25.73
2017-12-11T11:54:10.620Z,27.17
2017-12-11T11:56:38.200Z,24.00
2017-12-11T11:59:05.686Z,20.60
2017-12-11T12:01:33.170Z,23.03
2017-12-11T12:04:00.696Z,28.87
2017-12-11T12:06:28.283Z,22.83
2017-12-11T12:08:55.778Z,29.60
2017-12-11T12:11:23.278Z,26.37
2017-12-11T12:13:50.921Z,27.17
2017-12-11T12:16:18.419Z,26.97
2017-12-11T12:18:45.951Z,28.20
2017-12-11T12:21:13.620Z,22.57
2017-12-11T12:23:41.363Z,25.90
2017-12-11T12:26:08.860Z,26.73
2017-12-11T12:28:36.373Z,29.83
2017-12-11T12:31:03.872Z,25.00
2017-12-11T12:33:31.428Z,28.73
2017-12-11T12:35:58.939Z,30.07
2017-12-11T12:38:26.434Z,29.00
2017-12-11T12:40:53.931Z,30.77
2017-12-11T12:43:21.471Z,26.47
2017-12-11T12:45:48.988Z,28.07
2017-12-11T12:48:16.490Z,28.33
2017-12-11T12:50:44.016Z,28.30
2017-12-11T12:53:12.482Z,25.97
2017-12-11T12:55:40.094Z,26.00
2017-12-11T12:58:07.609Z,26.37
2017-12-11T13:00:35.153Z,21.67
2017-12-11T13:03:02.651Z,25.17
2017-12-11T13:05:30.175Z,27.37
2017-12-11T13:07:57.674Z,26.90
2017-12-11T13:10:25.211Z,26.50
2017-12-11T13:12:53.042Z,26.77
2017-12-11T13:15:20.553Z,29.53
2017-12-11T13:17:48.076Z,30.70
2017-12-11T13:20:15.569Z,31.37
2017-12-11T13:22:43.115Z,32.47
2017-12-11T13:25:11.239Z,29.00
2017-12-11T13:27:38.729Z,28.43
2017-12-11T13:30:06.439Z,31.67
2017-12-11T13:32:33.936Z,24.17
2017-12-11T13:35:01.444Z,34.07
2017-12-11T13:37:28.955Z,32.83
2017-12-11T13:39:56.472Z,32.93
2017-12-11T13:42:23.978Z,32.90
2017-12-11T13:44:51.460Z,33.80
2017-12-11T13:47:19.273Z,34.37
2017-12-11T13:49:46.994Z,37.83
2017-12-11T13:52:14.564Z,31.83
2017-12-11T13:54:42.081Z,30.80
2017-12-11T13:57:09.584Z,36.00
2017-12-11T13:59:37.109Z,30.03
2017-12-11T14:02:04.601Z,30.97
2017-12-11T14:04:32.411Z,34.07
2017-12-11T14:06:59.912Z,31.77
2017-12-11T14:09:27.441Z,32.60
2017-12-11T14:11:54.980Z,32.73
2017-12-11T14:14:22.473Z,33.43
2017-12-11T14:16:50.005Z,31.90
2017-12-11T14:19:17.520Z,30.07
2017-12-11T14:21:45.035Z,32.57
2017-12-11T14:24:12.800Z,28.73
2017-12-11T14:26:40.335Z,29.03
2017-12-11T14:29:07.878Z,29.50
2017-12-11T14:31:35.365Z,27.83
2017-12-11T14:34:02.921Z,29.77
2017-12-11T14:36:31.477Z,30.03
2017-12-11T14:38:58.975Z,27.87
2017-12-11T14:41:26.468Z,29.00
2017-12-11T14:43:53.944Z,29.50
2017-12-11T14:46:21.441Z,32.67
2017-12-11T14:48:48.995Z,29.83
2017-12-11T14:51:16.510Z,27.43
2017-12-11T14:53:44.021Z,28.80
2017-12-11T14:56:11.525Z,26.53
2017-12-11T14:58:39.033Z,32.93
2017-12-11T15:01:06.530Z,32.77
2017-12-11T15:03:34.072Z,28.40
2017-12-11T15:06:01.589Z,30.87
2017-12-11T15:08:29.110Z,26.73
2017-12-11T15:10:56.629Z,28.33
2017-12-11T15:13:24.187Z,30.40
2017-12-11T15:15:51.728Z,33.30
2017-12-11T15:18:19.235Z,35.83
2017-12-11T15:20:46.764Z,28.40
2017-12-11T15:23:14.329Z,33.40
2017-12-11T15:25:41.859Z,29.97
2017-12-11T15:28:09.392Z,32.63
2017-12-11T15:30:36.913Z,32.70
2017-12-11T15:33:04.755Z,33.60
2017-12-11T15:35:32.259Z,38.57
2017-12-11T15:37:59.776Z,35.10
2017-12-11T15:40:27.305Z,37.73
2017-12-11T15:42:54.812Z,42.33
2017-12-11T15:45:22.323Z,38.40
2017-12-11T15:47:50.058Z,42.70
2017-12-11T15:50:17.592Z,43.57
2017-12-11T15:52:45.099Z,42.33
2017-12-11T15:55:12.624Z,42.07
2017-12-11T15:57:40.142Z,43.63
2017-12-11T16:00:07.657Z,46.03
2017-12-11T16:02:35.228Z,45.93
2017-12-11T16:05:02.741Z,53.57
2017-12-11T16:07:30.259Z,46.47
2017-12-11T16:09:57.761Z,44.63
2017-12-11T16:12:25.288Z,45.37
2017-12-11T16:14:53.023Z,47.63
2017-12-11T16:17:20.537Z,49.37
2017-12-11T16:19:48.036Z,50.07
2017-12-11T16:22:15.591Z,51.73
2017-12-11T16:24:43.089Z,47.30
2017-12-11T16:27:10.626Z,53.17
2017-12-11T16:29:38.135Z,53.97
2017-12-11T16:32:05.642Z,51.83
2017-12-11T16:34:33.168Z,52.27
2017-12-11T16:37:00.672Z,56.00
2017-12-11T16:39:28.189Z,52.43
2017-12-11T16:41:55.700Z,53.67
2017-12-11T16:44:23.233Z,55.47
2017-12-11T16:46:50.853Z,50.80
2017-12-11T16:49:18.355Z,51.77
2017-12-11T16:51:45.872Z,57.17
2017-12-11T16:54:13.389Z,50.80
2017-12-11T16:56:40.911Z,54.67
2017-12-11T16:59:08.416Z,55.00
2017-12-11T17:01:36.948Z,50.17
2017-12-11T17:04:04.491Z,49.70
2017-12-11T17:06:32.001Z,51.47
2017-12-11T17:08:59.505Z,52.50
2017-12-11T17:11:27.013Z,53.40
2017-12-11T17:13:54.521Z,51.20
2017-12-11T17:16:22.019Z,53.17
2017-12-11T17:18:49.523Z,48.03
2017-12-11T17:21:17.059Z,50.17
2017-12-11T17:23:44.566Z,49.40
2017-12-11T17:26:12.065Z,52.40
2017-12-11T17:28:39.561Z,45.83
2017-12-11T17:31:07.063Z,50.13
2017-12-11T17:33:34.926Z,52.33
2017-12-11T17:36:02.556Z,51.50
2017-12-11T17:38:30.071Z,50.17
2017-12-11T17:40:57.575Z,55.57
2017-12-11T17:43:25.088Z,55.03
2017-12-11T17:45:52.581Z,53.13
2017-12-11T17:48:20.110Z,49.57
2017-12-11T17:50:47.607Z,54.73
2017-12-11T17:53:15.104Z,52.73
2017-12-11T17:55:42.597Z,55.57
2017-12-11T17:58:10.109Z,51.90
2017-12-11T18:00:37.613Z,54.93
2017-12-11T18:03:05.147Z,55.20
2017-12-11T18:05:32.662Z,53.50
2017-12-11T18:08:00.154Z,61.27
2017-12-11T18:10:27.657Z,51.83
2017-12-11T18:12:55.189Z,58.47
2017-12-11T18:15:22.736Z,58.30
2017-12-11T18:17:50.276Z,57.90
2017-12-11T18:20:17.857Z,58.90
2017-12-11T18:22:45.357Z,56.13
2017-12-11T18:25:12.857Z,55.20
2017-12-11T18:27:40.352Z,51.80
2017-12-11T18:30:07.879Z,57.97
2017-12-11T18:32:36.019Z,50.27
2017-12-11T18:35:03.542Z,54.10
2017-12-11T18:37:31.053Z,54.30
2017-12-11T18:39:58.614Z,56.10
2017-12-11T18:42:26.110Z,53.67
2017-12-11T18:44:53.605Z,50.43
2017-12-11T18:47:21.123Z,49.17
2017-12-11T18:49:48.616Z,53.50
2017-12-11T18:52:16.119Z,56.47
2017-12-11T18:54:43.601Z,53.13
2017-12-11T18:57:11.123Z,48.73
2017-12-11T18:59:38.677Z,49.80
2017-12-11T19:02:06.204Z,50.07
2017-12-11T19:04:33.692Z,49.70
2017-12-11T19:07:01.183Z,50.10
2017-12-11T19:09:28.701Z,47.53
2017-12-11T19:11:56.348Z,51.80
2017-12-11T19:14:23.842Z,52.30
2017-12-11T19:16:51.332Z,57.70
2017-12-11T19:19:18.852Z,47.70
2017-12-11T19:21:46.359Z,50.00
2017-12-11T19:24:13.880Z,45.90
2017-12-11T19:26:41.384Z,46.47
2017-12-11T19:29:08.905Z,50.53
2017-12-11T19:31:36.564Z,50.10
2017-12-11T19:34:04.075Z,48.73
2017-12-11T19:36:31.592Z,53.67
2017-12-11T19:38:59.131Z,48.57
2017-12-11T19:41:26.626Z,46.10
2017-12-11T19:43:54.131Z,45.90
2017-12-11T19:46:21.621Z,44.37
2017-12-11T19:48:49.120Z,45.80
2017-12-11T19:51:16.646Z,50.00
2017-12-11T19:53:44.156Z,46.03
2017-12-11T19:56:11.648Z,41.83
2017-12-11T19:58:39.204Z,45.10
2017-12-11T20:01:06.735Z,41.90
2017-12-11T20:03:34.239Z,39.70
2017-12-11T20:06:01.745Z,42.10
2017-12-11T20:08:29.232Z,48.20
2017-12-11T20:10:56.755Z,41.30
2017-12-11T20:13:24.277Z,38.73
2017-12-11T20:15:51.792Z,40.67
2017-12-11T20:18:19.381Z,46.17
2017-12-11T20:20:46.928Z,35.20
2017-12-11T20:23:14.573Z,37.17
2017-12-11T20:25:42.243Z,34.80
2017-12-11T20:28:09.740Z,33.93
2017-12-11T20:30:37.248Z,35.10
2017-12-11T20:33:04.732Z,30.73
2017-12-11T20:35:32.272Z,32.63
2017-12-11T20:37:59.805Z,31.37
2017-12-11T20:40:27.305Z,34.00
2017-12-11T20:42:54.905Z,28.80
2017-12-11T20:45:22.427Z,26.47
2017-12-11T20:47:49.950Z,28.47
2017-12-11T20:50:17.451Z,33.03
2017-12-11T20:52:45.072Z,26.77
2017-12-11T20:55:12.574Z,25.67
2017-12-11T20:57:40.109Z,26.27
2017-12-11T21:00:07.623Z,28.97
2017-12-11T21:02:35.261Z,26.13
2017-12-11T21:05:02.846Z,24.07
2017-12-11T21:07:30.363Z,20.60
2017-12-11T21:09:57.896Z,20.17
2017-12-11T21:12:25.438Z,19.30
2017-12-11T21:14:52.962Z,17.13
2017-12-11T21:17:20.502Z,20.80
2017-12-11T21:19:48.091Z,20.43
2017-12-11T21:22:15.613Z,18.90
2017-12-11T21:24:44.076Z,18.60
2017-12-11T21:27:11.616Z,18.13
2017-12-11T21:29:39.225Z,16.40
2017-12-11T21:32:06.905Z,19.20
2017-12-11T21:34:34.403Z,22.33
2017-12-11T21:37:01.928Z,19.87
2017-12-11T21:39:29.446Z,17.97
2017-12-11T21:41:56.966Z,17.40
2017-12-11T21:44:26.381Z,21.27
2017-12-11T21:46:53.896Z,16.63
2017-12-11T21:49:21.411Z,17.77
2017-12-11T21:51:48.925Z,13.27
2017-12-11T21:54:16.428Z,15.03
2017-12-11T21:56:43.912Z,12.03
2017-12-11T21:59:11.431Z,11.40
2017-12-11T22:01:38.980Z,9.67
2017-12-11T22:04:07.294Z,10.30
2017-12-11T22:06:34.784Z,11.90
2017-12-11T22:09:02.287Z,7.63
2017-12-11T22:11:30.278Z,9.43
2017-12-11T22:13:58.333Z,7.57
2017-12-11T22:16:25.859Z,6.57
2017-12-11T22:18:53.364Z,3.80
2017-12-11T22:21:20.890Z,2.70
2017-12-11T22:23:48.672Z,2.73
2017-12-11T22:26:16.237Z,2.60
2017-12-11T22:28:43.740Z,2.10
2017-12-11T22:31:11.239Z,3.70
2017-12-11T22:33:38.735Z,4.30
2017-12-11T22:36:06.314Z,5.97
2017-12-11T22:38:33.802Z,2.70
2017-12-11T22:41:01.322Z,1.93
2017-12-11T22:43:28.878Z,3.40
2017-12-11T22:45:56.438Z,2.03
2017-12-11T22:48:23.954Z,6.77
2017-12-11T22:50:51.455Z,1.87
2017-12-11T22:53:19.035Z,2.13
2017-12-11T22:55:46.557Z,2.47
2017-12-11T22:58:14.038Z,2.27
2017-12-11T23:00:41.599Z,2.07
2017-12-11T23:03:09.109Z,2.23
2017-12-11T23:05:36.592Z,2.97
2017-12-11T23:08:04.071Z,3.27
2017-12-11T23:10:31.558Z,4.70
2017-12-11T23:12:59.150Z,2.87
2017-12-11T23:15:26.710Z,2.10
2017-12-11T23:17:54.203Z,1.77
2017-12-11T23:20:21.697Z,2.73
2017-12-11T23:22:49.222Z,1.90
2017-12-11T23:25:16.705Z,2.03
2017-12-11T23:27:44.189Z,3.00
2017-12-11T23:30:12.137Z,5.60
2017-12-11T23:32:39.664Z,1.80
2017-12-11T23:35:07.200Z,2.50
2017-12-11T23:37:34.781Z,3.00
2017-12-11T23:40:02.289Z,2.17
2017-12-11T23:42:29.809Z,1.93
2017-12-11T23:44:57.423Z,1.87
2017-12-11T23:47:24.941Z,1.77
2017-12-11T23:49:52.574Z,5.50
2017-12-11T23:52:20.180Z,3.00
2017-12-11T23:54:47.727Z,2.90
2017-12-11T23:57:15.205Z,3.90
2017-12-11T23:59:42.725Z,1.73
